Time;durP1;ratioP1;P1;durP2;ratioP2;P2;SDS_P1;SDS_P2;PMS_P1;PMS_P2;Temp;Humidity;BMP_temperature;BMP_pressure;BME280_temperature;BME280_humidity;BME280_pressure;Samples;Min_cycle;Max_cycle;Signal;HPM_P1;HPM_P2
2021/09/21 00:00:41;;;;;;;3.95;3.05;;;10.60;99.90;;;;;;4921242;29;20432;-79
2021/09/21 00:03:06;;;;;;;3.42;2.80;;;10.50;99.90;;;;;;4920129;29;20488;-82
2021/09/21 00:05:32;;;;;;;3.88;3.00;;;10.50;99.90;;;;;;4921236;29;20027;-78
2021/09/21 00:07:58;;;;;;;5.53;3.65;;;10.50;99.90;;;;;;4920255;29;20028;-80
2021/09/21 00:10:23;;;;;;;3.10;2.80;;;10.50;99.90;;;;;;4920891;29;20024;-80
2021/09/21 00:12:49;;;;;;;4.72;2.95;;;10.50;99.90;;;;;;4938147;29;20054;-77
2021/09/21 00:15:16;;;;;;;5.28;3.65;;;10.50;99.90;;;;;;4920625;29;20080;-81
2021/09/21 00:17:44;;;;;;;4.35;3.17;;;10.50;99.90;;;;;;4920051;29;20425;-78
2021/09/21 00:20:10;;;;;;;4.78;3.58;;;10.50;99.90;;;;;;4920549;29;20055;-82
2021/09/21 00:22:37;;;;;;;3.72;3.20;;;10.50;99.90;;;;;;4920981;29;20036;-78
2021/09/21 00:25:03;;;;;;;5.68;3.00;;;10.60;99.90;;;;;;4919381;29;20123;-81
2021/09/21 00:27:29;;;;;;;3.25;2.83;;;10.60;99.90;;;;;;4920821;29;20119;-79
2021/09/21 00:29:54;;;;;;;4.22;3.25;;;10.60;99.90;;;;;;4920602;29;20110;-81
2021/09/21 00:32:25;;;;;;;5.22;3.70;;;10.60;99.90;;;;;;4920115;29;20111;-81
2021/09/21 00:34:51;;;;;;;4.15;3.58;;;10.50;99.90;;;;;;4920571;29;20019;-78
2021/09/21 00:37:17;;;;;;;4.32;3.33;;;10.50;99.90;;;;;;4937005;29;20122;-79
2021/09/21 00:39:43;;;;;;;4.05;3.30;;;10.50;99.90;;;;;;4920191;29;20127;-80
2021/09/21 00:42:10;;;;;;;4.97;3.80;;;10.50;99.90;;;;;;4920083;29;20146;-80
2021/09/21 00:44:37;;;;;;;4.93;3.95;;;10.40;99.90;;;;;;4935850;29;20046;-79
2021/09/21 00:47:04;;;;;;;5.13;3.90;;;10.40;99.90;;;;;;4920209;29;20020;-78
2021/09/21 00:49:30;;;;;;;5.82;3.35;;;10.40;99.90;;;;;;4937330;29;20051;-79
2021/09/21 00:51:56;;;;;;;6.40;4.15;;;10.40;99.90;;;;;;4936483;29;20119;-78
2021/09/21 00:54:22;;;;;;;5.65;4.88;;;10.40;99.90;;;;;;4919865;29;20024;-78
2021/09/21 00:56:48;;;;;;;5.35;4.65;;;10.40;99.90;;;;;;4936972;29;20071;-77
2021/09/21 00:59:15;;;;;;;5.55;4.50;;;10.40;99.90;;;;;;4919095;29;20034;-79
2021/09/21 01:01:41;;;;;;;5.13;4.30;;;10.40;99.90;;;;;;4920353;29;20030;-79
2021/09/21 01:04:06;;;;;;;5.55;4.32;;;10.40;99.90;;;;;;4919607;29;20423;-80
2021/09/21 01:06:33;;;;;;;7.10;5.43;;;10.50;99.90;;;;;;4919315;29;20111;-79
2021/09/21 01:08:59;;;;;;;6.15;4.88;;;10.50;99.90;;;;;;4919753;29;20369;-78
2021/09/21 01:11:25;;;;;;;6.55;4.78;;;10.50;99.90;;;;;;4937099;29;20083;-80
2021/09/21 01:13:51;;;;;;;5.65;4.90;;;10.60;99.90;;;;;;4919404;29;20032;-79
2021/09/21 01:16:17;;;;;;;6.90;4.93;;;10.60;99.90;;;;;;4919305;29;20023;-79
2021/09/21 01:18:43;;;;;;;5.72;4.75;;;10.60;99.90;;;;;;4936980;29;20034;-80
2021/09/21 01:21:11;;;;;;;6.35;4.15;;;10.60;99.90;;;;;;4918396;29;20024;-78
2021/09/21 01:24:03;;;;;;;5.68;4.68;;;10.60;99.90;;;;;;4919761;29;20032;-79
2021/09/21 01:26:29;;;;;;;5.35;4.18;;;10.60;99.90;;;;;;4915353;29;20032;-81
2021/09/21 01:28:54;;;;;;;5.07;4.13;;;10.60;99.90;;;;;;4918379;29;20119;-79
2021/09/21 01:31:20;;;;;;;4.40;3.95;;;10.50;99.90;;;;;;4919671;29;20027;-79
2021/09/21 01:33:51;;;;;;;4.90;4.25;;;10.50;99.90;;;;;;4919058;29;20023;-80
2021/09/21 01:36:19;;;;;;;4.75;4.05;;;10.50;99.90;;;;;;4919233;29;20027;-79
2021/09/21 01:38:45;;;;;;;4.95;4.15;;;10.40;99.90;;;;;;4919699;29;20087;-79
2021/09/21 01:41:11;;;;;;;5.03;4.53;;;10.40;99.90;;;;;;4918562;29;20024;-81
2021/09/21 01:43:37;;;;;;;6.40;4.95;;;10.40;99.90;;;;;;4919275;29;20036;-81
2021/09/21 01:46:03;;;;;;;4.80;3.90;;;10.30;99.90;;;;;;4918785;29;20042;-81
2021/09/21 01:48:28;;;;;;;7.78;5.05;;;10.30;99.90;;;;;;4918531;29;20062;-80
2021/09/21 01:50:59;;;;;;;6.28;4.40;;;10.30;99.90;;;;;;4919276;29;20163;-79
2021/09/21 01:58:46;;;;;;;5.13;4.57;;;10.10;99.90;;;;;;4936711;29;20042;-82
2021/09/21 02:01:13;;;;;;;6.80;4.80;;;10.10;99.90;;;;;;4918585;29;20024;-81
2021/09/21 02:03:39;;;;;;;5.85;5.10;;;10.00;99.90;;;;;;4918295;29;20122;-80
2021/09/21 02:06:05;;;;;;;6.95;5.30;;;10.00;99.90;;;;;;4918291;29;20175;-80
2021/09/21 02:08:31;;;;;;;5.47;4.80;;;10.00;99.90;;;;;;4919305;29;20115;-81
2021/09/21 02:10:57;;;;;;;6.07;4.90;;;10.00;99.90;;;;;;4917953;29;20020;-82
2021/09/21 02:13:23;;;;;;;5.05;4.47;;;9.90;99.90;;;;;;4918893;29;20020;-81
2021/09/21 02:15:48;;;;;;;5.25;4.43;;;9.90;99.90;;;;;;4936207;29;20039;-79
2021/09/21 02:18:14;;;;;;;6.10;3.90;;;9.90;99.90;;;;;;4918003;29;20499;-79
2021/09/21 02:20:39;;;;;;;4.28;3.80;;;9.90;99.90;;;;;;4919202;29;20027;-79
2021/09/21 02:23:05;;;;;;;5.10;4.30;;;9.90;99.90;;;;;;4934652;29;20587;-81
2021/09/21 02:25:30;;;;;;;4.38;3.97;;;9.80;99.90;;;;;;4918900;29;20472;-79
2021/09/21 02:27:56;;;;;;;6.00;4.18;;;9.80;99.90;;;;;;4935073;29;20381;-78
2021/09/21 02:30:22;;;;;;;5.85;4.30;;;9.80;99.90;;;;;;4917880;29;20400;-79
2021/09/21 02:32:49;;;;;;;4.07;3.67;;;9.80;99.90;;;;;;4918132;29;20031;-78
2021/09/21 02:35:15;;;;;;;4.72;3.80;;;9.80;99.90;;;;;;4918301;29;20024;-81
2021/09/21 02:37:41;;;;;;;5.68;3.97;;;9.80;99.90;;;;;;4917855;29;20114;-82
2021/09/21 02:40:08;;;;;;;7.53;4.50;;;9.80;99.90;;;;;;4918269;29;20139;-81
2021/09/21 02:42:34;;;;;;;4.28;3.88;;;9.80;99.90;;;;;;4918628;29;20400;-77
2021/09/21 02:45:00;;;;;;;4.90;3.50;;;9.80;99.90;;;;;;4917131;29;20099;-79
2021/09/21 02:47:26;;;;;;;4.30;3.90;;;9.80;99.90;;;;;;4918490;29;20472;-79
2021/09/21 02:49:52;;;;;;;5.05;4.15;;;9.80;99.90;;;;;;4915243;29;20055;-79
2021/09/21 02:52:17;;;;;;;5.40;3.72;;;9.80;99.90;;;;;;4914233;29;20024;-78
2021/09/21 02:54:43;;;;;;;5.88;4.05;;;9.80;99.90;;;;;;4915293;29;20024;-79
2021/09/21 02:57:08;;;;;;;4.32;3.80;;;9.80;99.90;;;;;;4914836;29;20389;-77
2021/09/21 02:59:34;;;;;;;4.30;3.90;;;9.70;99.90;;;;;;4914326;29;20032;-78
2021/09/21 03:01:59;;;;;;;4.20;3.72;;;9.70;99.90;;;;;;4914469;29;20119;-78
2021/09/21 03:04:28;;;;;;;4.95;3.70;;;9.70;99.90;;;;;;4916645;29;20036;-79
2021/09/21 03:07:03;;;;;;;4.63;3.72;;;9.70;99.90;;;;;;4914652;29;20442;-78
2021/09/21 03:17:26;;;;;;;4.10;3.65;;;9.60;99.90;;;;;;4939618;29;20099;-79
2021/09/21 03:20:02;;;;;;;7.55;3.53;;;9.50;99.90;;;;;;4921259;29;20134;-79
2021/09/21 03:22:28;;;;;;;4.35;3.05;;;9.50;99.90;;;;;;4921794;29;20031;-78
2021/09/21 03:24:54;;;;;;;5.43;3.63;;;9.50;99.90;;;;;;4921759;29;20028;-78
2021/09/21 03:27:21;;;;;;;4.50;3.65;;;9.50;99.90;;;;;;4937907;29;20036;-79
2021/09/21 03:29:49;;;;;;;4.22;3.72;;;9.50;99.90;;;;;;4921709;29;20042;-78
2021/09/21 03:32:16;;;;;;;5.03;3.63;;;9.50;99.90;;;;;;4921663;29;20032;-78
2021/09/21 03:34:42;;;;;;;4.55;3.25;;;9.50;99.90;;;;;;4921052;29;20036;-78
2021/09/21 03:37:09;;;;;;;4.68;3.47;;;9.40;99.90;;;;;;4920997;29;20030;-78
2021/09/21 03:39:36;;;;;;;5.10;3.13;;;9.50;99.90;;;;;;4921653;29;20046;-78
2021/09/21 03:42:02;;;;;;;4.20;3.80;;;9.40;99.90;;;;;;4937638;29;20031;-78
2021/09/21 03:44:28;;;;;;;5.22;3.40;;;9.40;99.90;;;;;;4921854;29;20039;-78
2021/09/21 03:46:54;;;;;;;4.45;3.58;;;9.30;99.90;;;;;;4938389;29;20381;-78
2021/09/21 03:49:21;;;;;;;4.03;3.47;;;9.30;99.90;;;;;;4920696;29;20515;-78
2021/09/21 03:51:47;;;;;;;4.22;3.25;;;9.30;99.90;;;;;;4921378;29;20024;-78
2021/09/21 03:54:13;;;;;;;5.43;3.80;;;9.30;99.90;;;;;;4921113;29;20110;-78
2021/09/21 03:56:38;;;;;;;3.45;3.15;;;9.30;99.90;;;;;;4920681;29;20421;-78
2021/09/21 03:59:05;;;;;;;3.67;3.35;;;9.30;99.90;;;;;;4921058;29;20026;-79
2021/09/21 04:01:30;;;;;;;4.38;3.60;;;9.40;99.90;;;;;;4920554;29;20052;-80
2021/09/21 04:03:57;;;;;;;4.15;3.60;;;9.40;99.90;;;;;;4920924;29;20032;-78
2021/09/21 04:06:22;;;;;;;4.28;3.45;;;9.40;99.90;;;;;;4921197;29;20393;-80
2021/09/21 04:08:48;;;;;;;4.55;4.10;;;9.40;99.90;;;;;;4920495;29;20491;-80
2021/09/21 04:11:13;;;;;;;4.78;3.70;;;9.40;99.90;;;;;;4936434;29;20039;-79
2021/09/21 04:13:39;;;;;;;4.28;3.20;;;9.40;99.90;;;;;;4938505;29;20031;-79
2021/09/21 04:16:05;;;;;;;3.97;3.58;;;9.40;99.90;;;;;;4919811;29;20395;-81
2021/09/21 04:18:30;;;;;;;3.38;3.08;;;9.40;99.90;;;;;;4921091;29;20058;-80
2021/09/21 04:20:56;;;;;;;3.83;3.45;;;9.40;99.90;;;;;;4920566;29;20380;-81
2021/09/21 04:23:21;;;;;;;5.75;3.90;;;9.40;99.90;;;;;;4920026;29;20036;-80
2021/09/21 04:25:47;;;;;;;7.10;4.15;;;9.30;99.90;;;;;;4937691;29;20024;-80
2021/09/21 04:28:12;;;;;;;4.22;3.38;;;9.30;99.90;;;;;;4936313;29;20552;-78
2021/09/21 04:30:40;;;;;;;4.90;3.47;;;9.30;99.90;;;;;;4919424;29;20388;-79
2021/09/21 04:33:06;;;;;;;4.47;3.80;;;9.30;99.90;;;;;;4920373;29;20103;-78
2021/09/21 04:35:31;;;;;;;4.57;4.00;;;9.30;99.90;;;;;;4937752;29;20421;-80
2021/09/21 04:37:57;;;;;;;4.75;3.95;;;9.40;99.90;;;;;;4919407;29;20555;-79
2021/09/21 04:40:23;;;;;;;4.40;4.00;;;9.40;99.90;;;;;;4936860;29;20046;-81
2021/09/21 04:42:48;;;;;;;6.05;4.30;;;9.40;99.90;;;;;;4920800;29;20060;-78
2021/09/21 04:45:14;;;;;;;4.80;3.92;;;9.50;99.90;;;;;;4919594;29;20023;-79
2021/09/21 04:47:39;;;;;;;5.93;3.90;;;9.60;99.90;;;;;;4920236;29;20035;-80
2021/09/21 04:50:05;;;;;;;4.70;3.80;;;9.60;99.90;;;;;;4919997;29;20095;-80
2021/09/21 04:52:31;;;;;;;4.40;3.72;;;9.60;99.90;;;;;;4919209;29;20030;-80
2021/09/21 04:54:56;;;;;;;6.07;4.68;;;9.70;99.90;;;;;;4919975;29;20016;-80
2021/09/21 04:57:22;;;;;;;8.57;4.47;;;9.70;99.90;;;;;;4920137;29;20123;-80
2021/09/21 04:59:48;;;;;;;4.97;4.47;;;9.80;99.90;;;;;;4931273;29;20032;-79
2021/09/21 05:02:13;;;;;;;4.97;4.30;;;9.80;99.90;;;;;;4901277;29;20039;-78
2021/09/21 05:04:39;;;;;;;5.20;4.65;;;9.90;99.90;;;;;;4901166;29;20430;-77
2021/09/21 05:07:04;;;;;;;4.85;4.22;;;9.90;99.90;;;;;;4904979;29;20496;-78
2021/09/21 05:09:30;;;;;;;4.78;4.32;;;10.00;99.90;;;;;;4906435;29;20055;-78
2021/09/21 05:11:55;;;;;;;4.95;4.10;;;10.00;99.90;;;;;;4895839;29;20062;-79
2021/09/21 05:14:21;;;;;;;4.65;4.22;;;10.10;99.90;;;;;;4898853;29;20102;-79
2021/09/21 05:16:47;;;;;;;5.25;4.30;;;10.10;99.90;;;;;;4882212;29;20029;-79
2021/09/21 05:19:12;;;;;;;4.97;4.35;;;10.10;99.90;;;;;;4898368;29;20032;-81
2021/09/21 05:21:40;;;;;;;5.13;4.13;;;10.20;99.90;;;;;;4882098;29;20025;-81
2021/09/21 05:24:06;;;;;;;5.38;4.55;;;10.20;99.90;;;;;;4881420;29;20065;-88
2021/09/21 05:26:32;;;;;;;6.15;4.25;;;10.20;99.90;;;;;;4892744;29;20035;-83
2021/09/21 05:28:58;;;;;;;5.60;4.78;;;10.30;99.90;;;;;;4916379;29;20028;-80
2021/09/21 05:31:23;;;;;;;4.78;3.97;;;10.30;99.90;;;;;;4899775;29;20080;-84
2021/09/21 05:33:49;;;;;;;5.32;4.22;;;10.40;99.90;;;;;;4900217;29;20032;-82
2021/09/21 05:36:15;;;;;;;4.90;4.35;;;10.40;99.90;;;;;;4899556;29;20036;-78
2021/09/21 05:38:40;;;;;;;5.65;4.78;;;10.40;99.90;;;;;;4885152;29;20065;-78
2021/09/21 05:41:06;;;;;;;5.75;4.53;;;10.50;99.90;;;;;;4880392;29;20024;-78
2021/09/21 05:43:32;;;;;;;5.28;4.53;;;10.50;99.90;;;;;;4889854;29;20036;-78
2021/09/21 05:45:57;;;;;;;5.65;5.05;;;10.50;99.90;;;;;;4899722;29;20085;-79
2021/09/21 05:48:23;;;;;;;5.70;4.88;;;10.60;99.90;;;;;;4905386;29;20142;-79
2021/09/21 05:50:48;;;;;;;5.43;4.78;;;10.60;99.90;;;;;;4936095;29;20030;-78
2021/09/21 05:53:14;;;;;;;5.82;4.78;;;10.60;99.90;;;;;;4918181;29;20039;-87
2021/09/21 05:55:39;;;;;;;6.72;4.85;;;10.70;99.90;;;;;;4919569;29;20016;-88
2021/09/21 05:58:05;;;;;;;5.72;4.45;;;10.70;99.90;;;;;;4936295;29;20391;-88
2021/09/21 06:00:32;;;;;;;6.13;5.07;;;10.80;99.90;;;;;;4919078;29;20020;-87
2021/09/21 06:02:59;;;;;;;5.97;4.40;;;10.80;99.90;;;;;;4918148;29;20063;-82
2021/09/21 06:05:24;;;;;;;5.75;4.70;;;10.80;99.90;;;;;;4901208;29;20024;-83
2021/09/21 06:07:51;;;;;;;6.47;5.07;;;10.90;99.90;;;;;;4915821;29;20433;-84
2021/09/21 06:10:19;;;;;;;6.35;5.18;;;10.90;99.90;;;;;;4916009;29;20035;-81
2021/09/21 06:12:47;;;;;;;6.18;4.90;;;11.00;99.90;;;;;;4935448;29;20042;-82
2021/09/21 06:15:14;;;;;;;6.28;5.15;;;11.00;99.90;;;;;;4917456;29;20023;-83
2021/09/21 06:17:41;;;;;;;5.80;5.13;;;11.10;99.90;;;;;;4918770;29;20031;-81
2021/09/21 06:20:09;;;;;;;6.40;5.50;;;11.10;99.90;;;;;;4933533;29;20505;-80
2021/09/21 06:22:36;;;;;;;6.40;4.78;;;11.20;99.90;;;;;;4917114;29;20187;-79
2021/09/21 06:25:07;;;;;;;13.43;6.45;;;11.20;99.90;;;;;;4918364;29;20035;-85
2021/09/21 06:27:37;;;;;;;5.97;4.88;;;11.30;99.90;;;;;;4903119;29;20027;-86
2021/09/21 06:30:12;;;;;;;8.48;4.95;;;11.40;99.90;;;;;;4898761;29;20036;-85
2021/09/21 06:32:38;;;;;;;6.15;4.90;;;11.40;99.90;;;;;;4916188;29;20469;-82
2021/09/21 06:35:06;;;;;;;5.65;4.88;;;11.50;99.90;;;;;;4918148;29;20067;-76
2021/09/21 06:37:32;;;;;;;6.10;4.80;;;11.50;99.90;;;;;;4934162;29;20070;-77
2021/09/21 06:39:59;;;;;;;6.25;5.38;;;11.60;99.90;;;;;;4918044;29;20023;-77
2021/09/21 06:42:24;;;;;;;6.55;5.20;;;11.60;99.90;;;;;;4916921;29;20039;-79
2021/09/21 06:44:50;;;;;;;5.72;4.97;;;11.70;99.90;;;;;;4918243;29;20032;-78
2021/09/21 06:47:17;;;;;;;6.53;5.28;;;11.80;99.90;;;;;;4918115;29;20024;-78
2021/09/21 06:49:43;;;;;;;6.13;5.15;;;11.80;99.90;;;;;;4918445;29;20055;-81
2021/09/21 06:52:08;;;;;;;5.68;4.97;;;11.90;99.90;;;;;;4917465;29;20507;-78
2021/09/21 06:54:34;;;;;;;6.18;5.05;;;11.90;99.90;;;;;;4935719;29;20028;-80
2021/09/21 06:57:00;;;;;;;6.55;5.55;;;12.00;99.90;;;;;;4917891;29;20031;-80
2021/09/21 06:59:27;;;;;;;6.85;5.68;;;12.00;99.90;;;;;;4918186;29;20083;-79
2021/09/21 07:01:54;;;;;;;5.85;5.15;;;12.10;99.90;;;;;;4918303;29;20087;-80
2021/09/21 07:04:19;;;;;;;6.97;5.43;;;12.10;99.90;;;;;;4917836;29;20046;-80
2021/09/21 07:06:45;;;;;;;7.03;5.57;;;12.10;99.90;;;;;;4918316;29;20118;-80
2021/09/21 07:09:11;;;;;;;7.40;5.43;;;12.20;99.90;;;;;;4917949;29;20041;-79
2021/09/21 07:11:36;;;;;;;7.18;5.50;;;12.20;99.90;;;;;;4917552;29;20369;-77
2021/09/21 07:14:02;;;;;;;9.05;5.95;;;12.30;99.90;;;;;;4917775;29;20063;-77
2021/09/21 07:16:28;;;;;;;8.90;6.07;;;12.30;99.90;;;;;;4917935;29;20016;-79
2021/09/21 07:18:53;;;;;;;7.75;5.97;;;12.40;99.90;;;;;;4917371;29;20028;-78
2021/09/21 07:21:19;;;;;;;7.78;6.70;;;12.50;99.90;;;;;;4918069;29;20024;-79
2021/09/21 07:23:45;;;;;;;9.55;5.78;;;12.60;99.90;;;;;;4918069;29;20035;-80
2021/09/21 07:26:11;;;;;;;8.75;6.20;;;12.60;99.90;;;;;;4934124;29;20048;-80
2021/09/21 07:28:38;;;;;;;7.32;6.38;;;12.70;99.90;;;;;;4918052;29;20035;-79
2021/09/21 07:31:04;;;;;;;8.80;6.07;;;12.80;99.90;;;;;;4917693;29;20492;-79
2021/09/21 07:33:29;;;;;;;9.23;6.78;;;12.90;99.90;;;;;;4917522;29;20031;-82
2021/09/21 07:35:55;;;;;;;7.80;5.75;;;12.90;99.90;;;;;;4917418;29;20024;-78
2021/09/21 07:38:21;;;;;;;7.43;5.72;;;12.90;99.90;;;;;;4918294;29;20067;-77
2021/09/21 07:40:48;;;;;;;9.02;5.95;;;12.80;99.90;;;;;;4917346;29;20016;-77
2021/09/21 07:43:14;;;;;;;7.30;5.47;;;12.80;99.90;;;;;;4917609;29;20416;-80
2021/09/21 07:45:40;;;;;;;11.35;7.32;;;12.80;99.90;;;;;;4918066;29;20112;-77
2021/09/21 07:48:06;;;;;;;10.70;7.28;;;12.80;99.90;;;;;;4916451;29;20112;-77
2021/09/21 07:50:33;;;;;;;10.75;7.40;;;12.80;99.90;;;;;;4918185;29;20028;-79
2021/09/21 07:52:58;;;;;;;8.00;6.95;;;12.80;99.90;;;;;;4918431;29;20028;-78
2021/09/21 07:55:24;;;;;;;13.52;6.88;;;12.90;99.90;;;;;;4937678;29;20441;-81
2021/09/21 07:57:50;;;;;;;7.43;6.07;;;12.90;99.90;;;;;;4921159;29;20488;-79
2021/09/21 08:00:18;;;;;;;6.95;5.82;;;12.90;99.90;;;;;;4920530;29;20396;-80
2021/09/21 08:02:44;;;;;;;6.50;5.20;;;12.90;99.90;;;;;;4920745;29;20432;-78
2021/09/21 08:05:11;;;;;;;6.55;5.85;;;12.90;99.90;;;;;;4920851;29;20067;-79
2021/09/21 08:07:36;;;;;;;7.63;5.93;;;13.00;99.90;;;;;;4920724;29;20030;-80
2021/09/21 08:10:04;;;;;;;7.35;5.78;;;13.00;99.90;;;;;;4920802;29;20024;-77
2021/09/21 08:12:30;;;;;;;8.90;6.05;;;13.10;99.90;;;;;;4921043;29;20031;-79
2021/09/21 08:14:57;;;;;;;7.72;5.85;;;13.20;99.90;;;;;;4919898;29;20492;-77
2021/09/21 08:17:24;;;;;;;6.25;5.00;;;13.20;99.90;;;;;;4920935;29;20060;-80
2021/09/21 08:19:50;;;;;;;5.68;4.60;;;13.20;99.90;;;;;;4921019;29;20119;-80
2021/09/21 08:22:17;;;;;;;4.55;4.07;;;13.30;99.90;;;;;;4936920;29;20082;-80
2021/09/21 08:24:43;;;;;;;5.72;3.97;;;13.30;99.90;;;;;;4938085;29;20032;-78
2021/09/21 08:27:08;;;;;;;5.43;3.97;;;13.40;99.90;;;;;;4920472;29;20027;-78
2021/09/21 08:29:34;;;;;;;6.05;3.90;;;13.50;99.90;;;;;;4920322;29;20023;-80
2021/09/21 08:32:00;;;;;;;4.05;3.42;;;13.50;99.90;;;;;;4937431;29;20119;-79
2021/09/21 08:34:26;;;;;;;5.95;3.53;;;13.60;99.90;;;;;;4937806;29;20495;-78
2021/09/21 08:36:52;;;;;;;4.47;3.47;;;13.60;99.90;;;;;;4920240;29;20028;-78
2021/09/21 08:39:19;;;;;;;4.70;4.00;;;13.60;99.90;;;;;;4920274;29;20043;-79
2021/09/21 08:41:44;;;;;;;4.75;3.05;;;13.70;99.90;;;;;;4920879;29;20012;-79
2021/09/21 08:44:10;;;;;;;4.40;3.10;;;13.80;99.90;;;;;;4919370;29;20392;-78
2021/09/21 08:46:36;;;;;;;4.65;3.40;;;13.80;99.90;;;;;;4920680;29;20079;-80
2021/09/21 08:49:03;;;;;;;6.75;3.63;;;13.80;99.90;;;;;;4919920;29;20056;-78
2021/09/21 08:51:29;;;;;;;4.28;3.53;;;13.90;99.90;;;;;;4919764;29;20016;-78
2021/09/21 08:53:54;;;;;;;3.95;3.55;;;13.90;99.90;;;;;;4936913;29;20131;-81
2021/09/21 08:56:21;;;;;;;3.45;3.15;;;14.00;99.90;;;;;;4920305;29;20535;-78
2021/09/21 08:59:05;;;;;;;3.75;3.00;;;14.00;99.90;;;;;;4919651;29;20051;-78
2021/09/21 09:01:39;;;;;;;3.45;2.95;;;14.10;99.90;;;;;;4920482;29;20384;-78
2021/09/21 09:04:04;;;;;;;3.40;3.10;;;14.20;99.90;;;;;;4919140;29;20131;-78
2021/09/21 09:06:30;;;;;;;4.28;3.03;;;14.30;99.90;;;;;;4919854;29;20455;-80
2021/09/21 09:09:02;;;;;;;3.33;2.72;;;14.40;99.90;;;;;;4936799;29;20039;-77
2021/09/21 09:11:28;;;;;;;3.25;2.42;;;14.50;99.90;;;;;;4936414;29;20023;-78
2021/09/21 09:13:56;;;;;;;3.92;2.47;;;14.50;99.90;;;;;;4919691;29;20083;-77
2021/09/21 09:16:24;;;;;;;2.67;2.45;;;14.60;99.90;;;;;;4936952;29;20027;-79
2021/09/21 09:19:03;;;;;;;2.53;2.28;;;14.60;99.90;;;;;;4936574;29;20111;-80
2021/09/21 09:21:35;;;;;;;3.60;2.72;;;14.70;99.90;;;;;;4919932;29;20023;-80
2021/09/21 09:24:02;;;;;;;5.35;3.10;;;14.60;99.90;;;;;;4936663;29;20036;-78
2021/09/21 09:26:31;;;;;;;4.97;2.90;;;14.70;99.90;;;;;;4919016;29;20046;-78
2021/09/21 09:28:57;;;;;;;2.85;2.55;;;14.70;99.90;;;;;;4919486;29;20539;-77
2021/09/21 09:31:28;;;;;;;3.65;2.95;;;14.80;99.90;;;;;;4919498;29;20477;-77
2021/09/21 09:34:12;;;;;;;2.92;2.40;;;14.80;99.90;;;;;;4918912;29;20028;-78
2021/09/21 09:36:59;;;;;;;3.17;2.58;;;14.90;99.90;;;;;;4919797;29;20123;-78
2021/09/21 09:39:28;;;;;;;3.70;2.92;;;14.90;99.90;;;;;;4919065;29;20032;-78
2021/09/21 09:41:56;;;;;;;3.45;2.47;;;15.00;99.90;;;;;;4919381;29;20024;-78
2021/09/21 09:44:25;;;;;;;5.32;2.67;;;15.00;99.90;;;;;;4919414;29;20031;-79
2021/09/21 09:46:54;;;;;;;4.65;2.70;;;15.00;99.90;;;;;;4918373;29;20028;-79
2021/09/21 09:49:42;;;;;;;4.10;2.40;;;15.00;99.90;;;;;;4919117;29;20051;-78
2021/09/21 09:52:13;;;;;;;3.42;2.53;;;15.00;99.90;;;;;;4919144;29;20027;-78
2021/09/21 09:54:41;;;;;;;2.80;1.90;;;15.10;99.90;;;;;;4918813;29;20024;-78
2021/09/21 09:57:08;;;;;;;2.88;2.30;;;15.10;99.90;;;;;;4918690;29;20119;-79
2021/09/21 09:59:35;;;;;;;2.63;2.25;;;15.10;99.90;;;;;;4936315;29;20028;-80
2021/09/21 10:02:00;;;;;;;4.18;2.55;;;15.10;99.90;;;;;;4917934;29;20031;-80
2021/09/21 10:04:26;;;;;;;2.47;2.20;;;15.10;99.90;;;;;;4919101;29;20040;-81
2021/09/21 10:06:52;;;;;;;2.80;2.60;;;15.20;99.90;;;;;;4918928;29;20024;-80
2021/09/21 10:09:20;;;;;;;2.85;1.95;;;15.20;99.90;;;;;;4917849;29;20023;-77
2021/09/21 10:11:52;;;;;;;2.55;2.03;;;15.20;99.90;;;;;;4936152;29;20084;-78
2021/09/21 10:14:19;;;;;;;2.83;1.90;;;15.30;99.90;;;;;;4917704;29;20083;-82
2021/09/21 10:17:00;;;;;;;3.65;2.17;;;15.30;99.90;;;;;;4918592;29;20472;-80
2021/09/21 10:19:27;;;;;;;2.58;2.35;;;15.30;99.90;;;;;;4918760;29;20176;-78
2021/09/21 10:21:54;;;;;;;2.67;2.20;;;15.40;99.90;;;;;;4918235;29;20027;-78
2021/09/21 10:24:39;;;;;;;3.58;2.97;;;15.40;99.90;;;;;;4935715;29;20043;-81
2021/09/21 10:27:07;;;;;;;2.38;2.17;;;15.40;99.90;;;;;;4918024;29;20020;-78
2021/09/21 10:29:33;;;;;;;2.67;2.33;;;15.40;99.90;;;;;;4918236;29;20020;-80
2021/09/21 10:31:59;;;;;;;2.92;2.33;;;15.40;99.90;;;;;;4918352;29;20024;-79
2021/09/21 10:34:25;;;;;;;3.13;2.47;;;15.40;99.90;;;;;;4918707;29;20022;-77
2021/09/21 10:36:54;;;;;;;3.15;2.50;;;15.50;99.90;;;;;;4917696;29;20467;-82
2021/09/21 10:39:22;;;;;;;2.92;2.25;;;15.50;99.90;;;;;;4918436;29;20119;-81
2021/09/21 10:41:58;;;;;;;2.80;2.45;;;15.50;99.90;;;;;;4918207;29;20024;-81
2021/09/21 10:44:25;;;;;;;4.53;2.53;;;15.50;99.80;;;;;;4917906;29;20039;-78
2021/09/21 10:46:59;;;;;;;3.53;2.35;;;15.60;99.80;;;;;;4935461;29;20102;-83
2021/09/21 10:49:37;;;;;;;2.80;2.22;;;15.60;99.90;;;;;;4917791;29;20520;-79
2021/09/21 10:52:07;;;;;;;2.90;2.67;;;15.60;99.90;;;;;;4918050;29;20020;-81
2021/09/21 10:54:49;;;;;;;4.20;2.50;;;15.60;99.80;;;;;;4918338;29;20484;-82
2021/09/21 10:57:38;;;;;;;2.60;2.40;;;15.60;99.70;;;;;;4917273;29;20650;-82
2021/09/21 11:00:21;;;;;;;2.70;2.50;;;15.60;99.90;;;;;;4917951;29;20432;-79
2021/09/21 11:02:51;;;;;;;3.70;2.42;;;15.60;99.80;;;;;;4917989;29;20114;-78
2021/09/21 11:05:19;;;;;;;2.53;2.33;;;15.60;99.90;;;;;;4917673;29;20031;-81
2021/09/21 11:07:49;;;;;;;3.03;2.50;;;15.60;99.90;;;;;;4918124;29;20114;-78
2021/09/21 11:10:17;;;;;;;3.78;3.10;;;15.70;99.20;;;;;;4918042;29;20038;-84
2021/09/21 11:12:51;;;;;;;4.20;2.83;;;15.80;99.10;;;;;;4934732;29;20495;-78
2021/09/21 11:15:18;;;;;;;2.83;2.60;;;15.80;99.00;;;;;;4935188;29;20543;-83
2021/09/21 11:17:44;;;;;;;3.45;2.92;;;15.90;98.90;;;;;;4917099;29;20036;-79
2021/09/21 11:20:13;;;;;;;5.30;3.17;;;15.90;99.20;;;;;;4917956;29;20019;-76
2021/09/21 11:23:22;;;;;;;3.13;2.83;;;16.00;98.50;;;;;;4911623;29;20044;-84
2021/09/21 11:42:00;;;;;;;3.28;2.85;;;16.30;98.90;;;;;;4940367;23;19930;-87
2021/09/21 11:44:36;;;;;;;2.80;2.50;;;16.40;98.60;;;;;;4919848;29;20035;-84
2021/09/21 11:47:13;;;;;;;4.97;3.65;;;16.40;98.10;;;;;;4919223;29;20046;-88
2021/09/21 11:49:54;;;;;;;4.50;3.00;;;16.50;97.90;;;;;;4893374;29;20106;-88
2021/09/21 11:52:23;;;;;;;4.03;2.33;;;16.60;97.10;;;;;;4919313;29;20028;-82
2021/09/21 11:54:49;;;;;;;3.08;2.50;;;16.60;97.60;;;;;;4901526;29;20084;-87
2021/09/21 11:57:14;;;;;;;3.78;2.80;;;16.70;98.10;;;;;;4918880;29;20028;-83
2021/09/21 11:59:43;;;;;;;2.83;2.58;;;16.70;98.10;;;;;;4901872;29;20488;-83
2021/09/21 12:02:16;;;;;;;4.03;2.72;;;16.70;98.10;;;;;;4902410;29;20024;-83
2021/09/21 12:04:50;;;;;;;2.65;2.35;;;16.80;98.10;;;;;;4902203;29;20035;-84
2021/09/21 12:07:17;;;;;;;3.97;2.47;;;16.90;98.40;;;;;;4901242;29;20885;-84
2021/09/21 12:09:44;;;;;;;8.05;2.90;;;16.90;98.30;;;;;;4920481;29;20107;-82
2021/09/21 12:12:16;;;;;;;3.63;2.78;;;17.00;97.70;;;;;;4901430;29;20107;-83
2021/09/21 12:14:43;;;;;;;4.90;3.10;;;17.10;97.70;;;;;;4901611;29;20020;-85
2021/09/21 12:17:11;;;;;;;7.13;3.25;;;17.20;97.50;;;;;;4912383;29;20511;-82
2021/09/21 12:19:42;;;;;;;2.92;2.63;;;17.30;97.40;;;;;;4921294;29;20032;-82
2021/09/21 12:22:08;;;;;;;;;;;17.40;97.30;;;;;;4920513;29;20041;-86
2021/09/21 12:24:34;;;;;;;3.95;3.20;;;17.50;96.70;;;;;;4920551;29;20335;-85
2021/09/21 12:27:03;;;;;;;2.72;2.50;;;17.50;97.20;;;;;;4918061;29;20081;-88
2021/09/21 12:29:33;;;;;;;3.92;2.40;;;17.60;97.20;;;;;;4918929;29;20035;-88
2021/09/21 12:31:59;;;;;;;3.47;2.95;;;17.70;97.40;;;;;;4904626;29;20042;-84
2021/09/21 12:34:32;;;;;;;6.07;3.20;;;17.80;97.40;;;;;;4925432;29;20043;-88
2021/09/21 12:37:03;;;;;;;3.35;2.83;;;17.80;97.10;;;;;;4939677;29;20507;-88
2021/09/21 12:39:33;;;;;;;7.57;2.70;;;17.90;95.90;;;;;;4934455;29;20469;-83
2021/09/21 12:42:02;;;;;;;6.07;3.03;;;17.90;96.00;;;;;;4934411;29;20039;-79
2021/09/21 12:44:28;;;;;;;3.83;2.72;;;17.90;96.60;;;;;;4937817;29;20377;-80
2021/09/21 12:46:56;;;;;;;3.15;2.85;;;17.90;97.10;;;;;;4939616;29;20020;-79
2021/09/21 12:49:23;;;;;;;7.75;3.72;;;17.90;97.40;;;;;;4939876;29;20183;-85
2021/09/21 12:51:54;;;;;;;3.40;3.08;;;17.90;96.40;;;;;;4939502;29;20030;-82
2021/09/21 12:54:21;;;;;;;3.03;2.83;;;17.90;96.10;;;;;;4934913;29;20024;-86
2021/09/21 12:56:49;;;;;;;5.55;3.08;;;18.00;96.60;;;;;;4954550;28;20031;-84
2021/09/21 12:59:19;;;;;;;4.70;3.63;;;18.00;97.10;;;;;;4938992;29;20086;-84
2021/09/21 13:01:46;;;;;;;3.65;3.08;;;18.00;96.80;;;;;;4939379;29;20023;-89
2021/09/21 13:04:12;;;;;;;3.33;3.03;;;18.00;96.90;;;;;;4939031;29;20551;-87
2021/09/21 13:06:39;;;;;;;4.50;3.42;;;18.00;96.70;;;;;;4936483;29;20028;-85
2021/09/21 13:09:06;;;;;;;3.30;3.00;;;18.00;95.90;;;;;;4939135;29;20027;-86
2021/09/21 13:11:32;;;;;;;4.53;2.90;;;18.00;95.70;;;;;;4938897;29;20016;-87
2021/09/21 13:13:58;;;;;;;3.78;3.20;;;18.00;95.90;;;;;;4937126;29;20031;-82
2021/09/21 13:16:25;;;;;;;5.40;3.38;;;18.00;95.50;;;;;;4955722;29;20023;-83
2021/09/21 13:18:53;;;;;;;4.25;2.72;;;18.00;95.60;;;;;;4938550;29;20090;-85